Time;durP1;ratioP1;P1;durP2;ratioP2;P2;SDS_P1;SDS_P2;PMS_P1;PMS_P2;Temp;Humidity;BMP_temperature;BMP_pressure;BME280_temperature;BME280_humidity;BME280_pressure;Samples;Min_cycle;Max_cycle;Signal;HPM_P1;HPM_P2
2022/09/19 00:01:17;;;;;;;9.52;1.85;;;;;;;9.22;95.11;101829.06;5072197;28;20052;-74
2022/09/19 00:03:46;;;;;;;9.88;1.65;;;;;;;9.21;95.14;101836.28;5071665;28;20174;-73
2022/09/19 00:06:15;;;;;;;10.32;2.05;;;;;;;9.20;95.00;101842.00;5071967;28;20045;-73
2022/09/19 00:08:44;;;;;;;6.65;1.70;;;;;;;9.20;95.61;101847.31;5071429;28;20124;-74
2022/09/19 00:11:12;;;;;;;11.70;1.90;;;;;;;9.22;95.45;101843.13;5071912;28;20067;-74
2022/09/19 00:13:45;;;;;;;8.52;1.40;;;;;;;9.22;95.48;101845.78;5069566;28;20497;-74
2022/09/19 00:16:12;;;;;;;14.63;1.55;;;;;;;9.25;95.31;101847.63;5072218;28;20037;-74
2022/09/19 00:18:39;;;;;;;11.90;1.90;;;;;;;9.30;95.11;101849.06;5069939;28;20916;-74
2022/09/19 00:21:05;;;;;;;11.43;1.50;;;;;;;9.34;94.93;101844.47;5072069;28;20049;-74
2022/09/19 00:26:17;;;;;;;10.48;1.40;;;;;;;9.41;94.50;101846.25;5071589;28;20047;-74
2022/09/19 00:28:45;;;;;;;8.18;1.80;;;;;;;9.44;94.27;101856.84;5053041;28;20076;-74
2022/09/19 00:31:17;;;;;;;9.10;1.65;;;;;;;9.47;94.10;101853.38;5071753;28;20454;-74
2022/09/19 00:33:46;;;;;;;8.75;1.40;;;;;;;9.50;93.70;101854.47;5070933;28;20103;-74
2022/09/19 00:36:13;;;;;;;10.48;1.65;;;;;;;9.51;94.14;101848.75;5053465;28;20056;-74
2022/09/19 00:38:41;;;;;;;14.07;1.83;;;;;;;9.52;94.07;101846.84;5053270;28;20055;-73
2022/09/19 00:41:14;;;;;;;10.70;1.40;;;;;;;9.52;93.95;101850.25;5074260;28;20045;-74
2022/09/19 00:43:54;;;;;;;10.50;1.70;;;;;;;9.54;94.07;101849.84;5056477;28;20045;-74
2022/09/19 00:46:23;;;;;;;11.15;1.65;;;;;;;9.55;93.83;101851.34;5073326;28;20462;-73
2022/09/19 00:48:55;;;;;;;9.25;1.75;;;;;;;9.54;93.77;101847.94;5072797;28;20049;-74
2022/09/19 00:51:45;;;;;;;10.50;1.73;;;;;;;9.53;93.71;101851.75;5056396;28;20057;-73
2022/09/19 00:54:28;;;;;;;8.65;1.48;;;;;;;9.50;94.11;101849.91;5075298;28;20048;-75
2022/09/19 00:56:56;;;;;;;14.30;1.98;;;;;;;9.50;94.29;101860.53;5074302;28;20056;-74
2022/09/19 00:59:25;;;;;;;10.32;1.63;;;;;;;9.47;94.55;101850.72;5067651;28;20548;-74
2022/09/19 01:01:54;;;;;;;8.68;2.35;;;;;;;9.46;93.89;101851.13;5072991;28;20514;-73
2022/09/19 01:04:24;;;;;;;8.38;1.55;;;;;;;9.45;94.21;101852.28;5065062;28;20128;-73
2022/09/19 01:07:08;;;;;;;7.03;1.33;;;;;;;9.43;94.31;101855.34;5074555;28;20129;-74
2022/09/19 01:09:52;;;;;;;11.98;2.28;;;;;;;9.45;94.18;101852.28;5054299;28;20484;-73
2022/09/19 01:12:34;;;;;;;11.10;1.88;;;;;;;9.46;93.84;101859.09;5070906;28;20059;-74
2022/09/19 01:15:09;;;;;;;11.02;2.13;;;;;;;9.44;93.46;101853.44;5071104;28;20099;-74
2022/09/19 01:17:46;;;;;;;9.48;2.13;;;;;;;9.41;93.57;101857.63;5072589;28;20059;-74
2022/09/19 01:20:22;;;;;;;6.57;1.80;;;;;;;9.39;93.61;101854.63;5073279;28;20405;-73
2022/09/19 01:23:15;;;;;;;11.10;1.85;;;;;;;9.36;93.51;101860.75;5073418;28;20114;-73
2022/09/19 01:26:15;;;;;;;13.50;1.70;;;;;;;9.33;93.52;101862.31;5054633;28;20053;-75
2022/09/19 01:29:06;;;;;;;7.80;1.30;;;;;;;9.31;93.75;101859.31;5055456;28;20080;-73
2022/09/19 01:31:37;;;;;;;10.10;1.98;;;;;;;9.28;93.74;101859.34;5071421;28;20550;-74
2022/09/19 01:34:16;;;;;;;6.10;1.85;;;;;;;9.23;93.51;101857.91;5072941;28;20049;-73
2022/09/19 01:36:52;;;;;;;12.25;2.00;;;;;;;9.21;93.47;101868.19;5071964;28;20053;-74
2022/09/19 01:39:24;;;;;;;10.10;1.80;;;;;;;9.20;93.40;101858.69;5072379;28;20537;-74
2022/09/19 01:41:58;;;;;;;7.57;1.23;;;;;;;9.19;94.04;101857.22;5052456;28;20136;-74
2022/09/19 01:44:27;;;;;;;7.38;1.48;;;;;;;9.21;93.77;101867.44;5052386;28;20054;-73
2022/09/19 01:47:22;;;;;;;12.00;1.65;;;;;;;9.20;93.71;101872.00;5051924;28;20100;-73
2022/09/19 01:50:05;;;;;;;13.02;2.17;;;;;;;9.20;93.79;101864.00;5053628;28;20486;-75
2022/09/19 01:52:40;;;;;;;11.80;2.10;;;;;;;9.22;93.99;101874.25;5051690;28;20053;-74
2022/09/19 01:55:26;;;;;;;14.82;1.55;;;;;;;9.24;93.45;101879.91;5068134;28;20086;-74
2022/09/19 01:58:08;;;;;;;8.50;1.50;;;;;;;9.30;93.47;101884.38;5069194;28;20049;-75
2022/09/19 02:00:43;;;;;;;4.75;1.90;;;;;;;9.32;93.18;101883.97;5068648;28;20149;-75
2022/09/19 02:03:22;;;;;;;5.20;1.45;;;;;;;9.35;92.55;101885.81;5052144;28;20152;-74
2022/09/19 02:06:02;;;;;;;6.50;1.60;;;;;;;9.37;92.82;101880.84;5051734;28;20065;-73
2022/09/19 02:08:40;;;;;;;13.93;1.42;;;;;;;9.35;92.62;101883.91;5053004;28;20904;-74
2022/09/19 02:11:12;;;;;;;7.90;1.73;;;;;;;9.35;92.44;101889.22;5069029;28;20518;-73
2022/09/19 02:13:45;;;;;;;9.38;1.65;;;;;;;9.35;92.31;101880.50;5068354;28;20073;-73
2022/09/19 02:16:22;;;;;;;7.07;1.48;;;;;;;9.33;92.53;101883.56;5068752;28;20572;-76
2022/09/19 02:18:56;;;;;;;12.88;1.83;;;;;;;9.32;92.89;101889.28;5068391;28;20056;-74
2022/09/19 02:21:27;;;;;;;9.90;1.83;;;;;;;9.34;92.90;101882.41;5070143;28;20049;-74
2022/09/19 02:23:56;;;;;;;6.65;1.55;;;;;;;9.36;93.02;101892.63;5029644;28;20057;-84
2022/09/19 02:26:23;;;;;;;6.10;1.25;;;;;;;9.37;92.86;101883.50;5033448;28;20048;-84
2022/09/19 02:28:55;;;;;;;8.27;1.60;;;;;;;9.42;92.72;101890.28;5048470;28;20046;-84
2022/09/19 02:31:26;;;;;;;6.65;1.75;;;;;;;9.41;93.24;101889.53;5048330;28;20050;-84
2022/09/19 02:33:59;;;;;;;8.57;1.70;;;;;;;9.41;92.59;101900.16;5031532;28;20522;-85
2022/09/19 02:36:34;;;;;;;13.68;2.60;;;;;;;9.42;92.68;101900.91;5048402;28;20593;-85
2022/09/19 02:39:04;;;;;;;7.95;1.40;;;;;;;9.44;92.93;101893.28;5048747;28;20045;-85
2022/09/19 02:41:56;;;;;;;5.63;1.20;;;;;;;9.43;92.80;101895.19;5048447;28;20145;-85
2022/09/19 02:44:43;;;;;;;6.57;1.40;;;;;;;9.44;92.69;101894.03;5047928;28;20045;-85
2022/09/19 02:47:21;;;;;;;12.38;1.65;;;;;;;9.44;92.54;101893.28;5048381;28;20050;-84
2022/09/19 02:49:54;;;;;;;10.45;2.15;;;;;;;9.41;92.91;101896.75;5047806;28;20554;-84
2022/09/19 02:52:28;;;;;;;9.10;1.33;;;;;;;9.37;92.97;101894.16;5047625;28;20602;-84
2022/09/19 02:55:05;;;;;;;9.05;1.38;;;;;;;9.40;92.97;101892.59;5015588;28;20046;-84
2022/09/19 02:57:34;;;;;;;5.50;1.27;;;;;;;9.35;93.09;101897.22;5031478;28;20104;-85
2022/09/19 03:00:04;;;;;;;9.55;1.65;;;;;;;9.35;92.88;101897.22;5048200;28;20072;-84
2022/09/19 03:02:41;;;;;;;8.02;1.40;;;;;;;9.32;93.10;101903.31;5046437;28;20045;-84
2022/09/19 03:05:16;;;;;;;8.50;1.17;;;;;;;9.28;93.42;101902.63;5033237;28;20045;-85
2022/09/19 03:07:50;;;;;;;6.57;1.73;;;;;;;9.27;93.40;101898.47;5047049;28;20053;-85
2022/09/19 03:10:24;;;;;;;4.53;1.20;;;;;;;9.24;93.80;101901.16;5033182;28;20491;-84
2022/09/19 03:13:02;;;;;;;15.18;1.73;;;;;;;9.18;94.13;101905.44;5032512;28;20053;-84
2022/09/19 03:15:40;;;;;;;11.18;1.40;;;;;;;9.13;94.28;101901.34;5047592;28;20164;-84
2022/09/19 03:18:13;;;;;;;11.65;1.83;;;;;;;9.09;94.74;101897.22;5048313;28;20080;-84
2022/09/19 03:20:47;;;;;;;5.53;1.17;;;;;;;9.02;94.50;101901.47;5030077;28;20056;-84
2022/09/19 03:23:18;;;;;;;6.57;1.52;;;;;;;8.97;94.50;101903.81;5061335;28;20053;-84
2022/09/19 03:25:46;;;;;;;8.00;1.63;;;;;;;8.90;94.69;101902.00;5066331;28;20045;-84
2022/09/19 03:28:17;;;;;;;6.82;1.60;;;;;;;8.85;94.83;101905.09;5049940;28;20081;-85
2022/09/19 03:30:43;;;;;;;10.68;1.77;;;;;;;8.81;94.90;101907.03;5065776;28;20053;-84
2022/09/19 03:33:11;;;;;;;7.78;1.83;;;;;;;8.77;95.46;101902.97;5066280;28;20498;-84
2022/09/19 03:35:38;;;;;;;11.63;1.38;;;;;;;8.76;95.35;101907.50;5065268;28;20047;-84
2022/09/19 03:38:06;;;;;;;5.13;1.58;;;;;;;8.74;95.52;101912.47;5066127;28;20541;-84
2022/09/19 03:40:34;;;;;;;8.55;1.63;;;;;;;8.74;95.70;101903.75;5049119;28;20501;-84
2022/09/19 03:43:00;;;;;;;7.05;1.70;;;;;;;8.75;95.90;101919.28;5066524;28;20536;-84
2022/09/19 03:45:27;;;;;;;3.30;1.13;;;;;;;8.78;95.44;101912.44;5066035;28;20636;-84
2022/09/19 03:47:54;;;;;;;7.50;1.50;;;;;;;8.78;96.28;101915.09;5065522;28;20499;-84
2022/09/19 03:50:21;;;;;;;6.65;1.27;;;;;;;8.79;96.23;101920.00;5065600;28;20103;-84
2022/09/19 03:53:00;;;;;;;9.43;1.65;;;;;;;8.81;96.26;101924.88;5065944;28;20056;-84
2022/09/19 03:55:27;;;;;;;8.27;1.58;;;;;;;8.82;96.58;101929.78;5049131;28;20053;-84
2022/09/19 03:57:54;;;;;;;4.15;1.25;;;;;;;8.83;96.30;101931.31;5065728;28;20054;-85
2022/09/19 04:00:22;;;;;;;9.88;1.40;;;;;;;8.86;96.34;101929.75;5049140;28;20077;-85
2022/09/19 04:02:49;;;;;;;9.20;1.40;;;;;;;8.86;96.82;101933.16;5050621;28;20463;-85
2022/09/19 04:05:16;;;;;;;7.22;1.40;;;;;;;8.86;96.82;101930.50;5065886;28;20073;-85
2022/09/19 04:07:42;;;;;;;8.02;1.50;;;;;;;8.89;96.63;101923.66;5050300;28;20095;-84
2022/09/19 04:10:09;;;;;;;8.63;1.42;;;;;;;8.88;96.88;101928.22;5065902;28;20057;-84
2022/09/19 04:12:39;;;;;;;12.52;1.88;;;;;;;8.87;97.02;101928.59;5065270;28;20157;-85
2022/09/19 04:15:07;;;;;;;8.75;1.58;;;;;;;8.88;96.90;101930.09;5068475;28;20049;-84
2022/09/19 04:17:33;;;;;;;6.70;1.13;;;;;;;8.86;97.27;101930.50;5052326;28;20045;-84
2022/09/19 04:20:06;;;;;;;9.95;1.80;;;;;;;8.88;97.33;101930.84;5053662;28;20484;-84
2022/09/19 04:22:51;;;;;;;11.50;1.58;;;;;;;8.89;97.82;101932.38;5030042;28;1046842;-85
2022/09/19 04:25:35;;;;;;;7.70;1.13;;;;;;;8.89;97.72;101929.72;5053264;28;20049;-84
2022/09/19 04:28:06;;;;;;;7.00;1.20;;;;;;;8.94;98.05;101933.84;5070819;28;20049;-84
2022/09/19 04:30:36;;;;;;;4.50;0.98;;;;;;;8.95;98.13;101933.44;5070400;28;20045;-84
2022/09/19 04:33:05;;;;;;;7.80;1.48;;;;;;;8.93;98.13;101932.31;5053252;28;20049;-84
2022/09/19 04:35:34;;;;;;;5.95;1.02;;;;;;;8.91;98.20;101937.28;5070956;28;20141;-84
2022/09/19 04:38:03;;;;;;;9.23;1.80;;;;;;;8.89;98.26;101939.59;5070723;28;20057;-85
2022/09/19 04:40:30;;;;;;;9.70;1.58;;;;;;;8.87;98.47;101942.63;5071104;28;20057;-84
2022/09/19 04:42:57;;;;;;;8.73;1.27;;;;;;;8.86;98.50;101935.06;5070493;28;20426;-84
2022/09/19 04:45:24;;;;;;;7.93;1.60;;;;;;;8.84;98.62;101934.72;5053344;28;20172;-86
2022/09/19 04:47:59;;;;;;;9.80;1.70;;;;;;;8.84;98.50;101934.72;5068556;28;20398;-82
2022/09/19 04:50:29;;;;;;;8.95;1.40;;;;;;;8.83;98.23;101936.59;5069502;28;20053;-81
2022/09/19 04:52:58;;;;;;;5.60;1.35;;;;;;;8.79;98.71;101943.13;5070729;28;20530;-83
2022/09/19 04:55:27;;;;;;;7.45;1.58;;;;;;;8.77;98.82;101951.50;5070846;28;20319;-85
2022/09/19 04:57:55;;;;;;;11.93;1.67;;;;;;;8.78;98.97;101954.91;5053715;28;20053;-86
2022/09/19 05:00:38;;;;;;;7.15;1.50;;;;;;;8.78;98.66;101960.22;5070787;28;20038;-84
2022/09/19 05:03:15;;;;;;;8.55;1.55;;;;;;;8.78;98.65;101970.84;5070195;28;20081;-85
2022/09/19 05:05:50;;;;;;;9.38;1.63;;;;;;;8.80;98.52;101971.91;5070343;28;20132;-84
2022/09/19 05:08:25;;;;;;;5.50;1.08;;;;;;;8.83;98.76;101965.06;5070754;28;20049;-85
2022/09/19 05:10:56;;;;;;;6.55;1.20;;;;;;;8.85;99.05;101974.16;5053646;28;20525;-84
2022/09/19 05:13:28;;;;;;;3.20;1.10;;;;;;;8.85;98.88;101973.38;5053699;28;20490;-86
2022/09/19 05:15:55;;;;;;;4.10;1.52;;;;;;;8.84;98.92;101977.94;5053530;28;20045;-86
2022/09/19 05:18:22;;;;;;;4.55;1.20;;;;;;;8.82;99.12;101982.91;5053448;28;20144;-84
2022/09/19 05:20:54;;;;;;;1.98;1.40;;;;;;;8.81;98.70;101980.63;5053640;28;20104;-83
2022/09/19 05:23:23;;;;;;;3.25;1.13;;;;;;;8.78;98.67;101986.78;5069993;28;20049;-82
2022/09/19 05:25:54;;;;;;;2.90;1.25;;;;;;;8.75;98.41;101988.31;5052315;28;20050;-83
2022/09/19 05:28:26;;;;;;;7.72;1.60;;;;;;;8.72;98.78;101978.47;5070730;28;20107;-83
2022/09/19 05:30:55;;;;;;;6.88;1.52;;;;;;;8.69;98.76;101984.59;5069551;28;20076;-82
2022/09/19 05:33:26;;;;;;;6.00;1.33;;;;;;;8.69;98.72;101984.59;5070415;28;20127;-82
2022/09/19 05:36:00;;;;;;;7.82;1.65;;;;;;;8.69;98.90;101987.25;5053133;28;20387;-86
2022/09/19 05:38:39;;;;;;;5.10;1.30;;;;;;;8.65;98.80;101981.22;5069994;28;20059;-81
2022/09/19 05:41:28;;;;;;;4.32;1.25;;;;;;;8.61;98.51;101999.06;5054817;28;20038;-82
2022/09/19 05:43:56;;;;;;;8.00;1.38;;;;;;;8.57;97.95;101988.50;5070381;28;20057;-82
2022/09/19 05:46:25;;;;;;;2.95;1.20;;;;;;;8.54;98.35;101999.13;5069462;28;20576;-82
2022/09/19 05:48:56;;;;;;;4.13;1.50;;;;;;;8.54;98.46;101991.19;5054031;28;20053;-82
2022/09/19 05:51:24;;;;;;;7.15;1.30;;;;;;;8.53;98.44;101997.63;5069884;28;20045;-82
2022/09/19 05:53:54;;;;;;;7.22;1.50;;;;;;;8.56;98.49;101999.50;5069732;28;20128;-82
2022/09/19 05:56:49;;;;;;;10.63;1.60;;;;;;;8.65;98.88;101994.47;5031297;28;20053;-82
2022/09/19 05:59:19;;;;;;;4.70;1.35;;;;;;;8.78;99.21;101998.13;5015292;28;20618;-82
2022/09/19 06:01:47;;;;;;;6.10;1.27;;;;;;;8.88;99.24;102001.81;5030890;28;20057;-82
2022/09/19 06:04:33;;;;;;;8.88;1.60;;;;;;;8.98;99.22;102001.69;5018030;28;20089;-82
2022/09/19 06:07:00;;;;;;;11.45;1.50;;;;;;;9.10;99.77;102005.75;5031579;28;20105;-82
2022/09/19 06:09:28;;;;;;;12.05;1.80;;;;;;;9.20;99.21;102001.41;5031867;28;20049;-82
2022/09/19 06:11:57;;;;;;;7.10;1.27;;;;;;;9.28;99.14;102008.91;5031601;28;20056;-82
2022/09/19 06:14:27;;;;;;;9.52;1.70;;;;;;;9.38;99.23;102012.59;5031224;28;20144;-82
2022/09/19 06:16:54;;;;;;;6.30;1.23;;;;;;;9.51;98.90;102010.16;5031436;28;20221;-80
2022/09/19 06:19:23;;;;;;;5.90;1.70;;;;;;;9.88;97.75;102017.22;5031908;28;20505;-84
2022/09/19 06:22:05;;;;;;;4.65;1.45;;;;;;;10.72;95.56;102011.63;5028981;28;20064;-86
2022/09/19 06:24:34;;;;;;;8.75;1.48;;;;;;;10.98;92.67;102032.03;5031179;28;20119;-84
2022/09/19 06:27:03;;;;;;;6.38;1.75;;;;;;;10.60;93.53;102028.19;5031482;28;20057;-84
2022/09/19 06:29:30;;;;;;;9.02;1.25;;;;;;;11.10;94.01;102028.00;5030959;28;20050;-86
2022/09/19 06:32:15;;;;;;;7.18;1.55;;;;;;;12.01;89.24;102026.41;5031971;28;20053;-85
2022/09/19 06:34:44;;;;;;;3.53;1.30;;;;;;;12.43;86.88;102018.50;5048765;28;20050;-86
2022/09/19 06:37:26;;;;;;;4.70;1.42;;;;;;;12.45;86.24;102032.19;5066007;28;20514;-85
2022/09/19 06:39:52;;;;;;;13.52;1.60;;;;;;;12.38;86.00;102032.41;5051970;28;20053;-84
2022/09/19 06:42:38;;;;;;;9.27;1.48;;;;;;;12.13;86.90;102025.72;5053229;28;20054;-87
2022/09/19 06:45:23;;;;;;;6.13;1.58;;;;;;;11.97;88.29;102039.84;5053526;28;20049;-86
2022/09/19 06:47:57;;;;;;;5.28;1.23;;;;;;;11.95;88.36;102038.78;5068831;28;20120;-86
2022/09/19 06:50:48;;;;;;;7.40;1.13;;;;;;;11.92;89.08;102045.69;5052563;28;20045;-85
2022/09/19 06:53:17;;;;;;;5.93;2.03;;;;;;;11.95;89.29;102041.44;5068799;28;20510;-85
2022/09/19 06:55:47;;;;;;;6.05;1.30;;;;;;;12.05;89.69;102050.34;5053488;28;20045;-85
2022/09/19 06:58:17;;;;;;;6.93;1.35;;;;;;;12.15;88.97;102047.41;5051644;28;20513;-85
2022/09/19 07:00:45;;;;;;;6.95;1.67;;;;;;;12.25;89.08;102051.75;5068595;28;20060;-85
2022/09/19 07:03:16;;;;;;;7.10;1.40;;;;;;;12.34;88.48;102054.59;5069079;28;20080;-83
2022/09/19 07:05:48;;;;;;;9.70;1.50;;;;;;;12.44;88.74;102052.81;5068155;28;20049;-84
2022/09/19 07:08:25;;;;;;;6.13;1.35;;;;;;;12.57;88.50;102052.88;5068556;28;20561;-84
2022/09/19 07:10:57;;;;;;;6.82;1.42;;;;;;;12.72;88.11;102055.94;5070224;28;20501;-80
2022/09/19 07:13:24;;;;;;;6.68;1.48;;;;;;;12.60;87.22;102055.44;5068682;28;20152;-84
2022/09/19 07:16:02;;;;;;;2.05;0.98;;;;;;;12.57;87.59;102053.63;5068672;28;20049;-85
2022/09/19 07:18:35;;;;;;;8.35;1.70;;;;;;;12.61;88.01;102054.28;5065325;22;20085;-77
2022/09/19 07:21:31;;;;;;;5.20;1.45;;;;;;;12.85;86.90;102048.69;5027388;28;20061;-78
2022/09/19 07:24:01;;;;;;;6.32;1.33;;;;;;;12.95;87.05;102051.06;5032084;28;20046;-78
2022/09/19 07:26:46;;;;;;;10.65;1.70;;;;;;;12.98;86.35;102060.19;5032753;28;20136;-76
2022/09/19 07:29:16;;;;;;;5.93;1.20;;;;;;;12.99;86.72;102054.41;5048489;28;20499;-79
2022/09/19 07:31:43;;;;;;;5.78;1.40;;;;;;;13.00;86.17;102058.56;5015064;28;20050;-77
2022/09/19 07:34:09;;;;;;;11.40;1.38;;;;;;;13.09;86.26;102047.28;5048212;28;20050;-76
2022/09/19 07:36:44;;;;;;;7.15;1.25;;;;;;;13.22;85.43;102056.06;5047910;28;20058;-75
2022/09/19 07:39:11;;;;;;;8.05;1.40;;;;;;;13.27;85.49;102071.59;5048229;28;20055;-77
2022/09/19 07:41:56;;;;;;;3.83;1.27;;;;;;;13.38;85.20;102065.94;5029913;28;20064;-75
2022/09/19 07:44:41;;;;;;;4.05;1.15;;;;;;;13.57;85.38;102065.00;5031892;28;20049;-75
2022/09/19 07:47:29;;;;;;;3.95;1.17;;;;;;;13.74;83.79;102078.25;5032701;28;20545;-77
2022/09/19 07:50:17;;;;;;;6.43;1.00;;;;;;;13.90;85.06;102078.16;5047933;28;20487;-75
2022/09/19 07:53:11;;;;;;;4.57;1.25;;;;;;;14.02;83.11;102080.06;5030789;28;20089;-77
2022/09/19 07:55:37;;;;;;;8.50;0.98;;;;;;;14.11;83.71;102080.16;5030555;28;20041;-77
2022/09/19 07:58:05;;;;;;;6.25;0.90;;;;;;;14.24;81.55;102090.84;5047723;28;20050;-76
2022/09/19 08:00:39;;;;;;;5.97;1.10;;;;;;;14.35;80.65;102092.00;5047497;28;20517;-75
2022/09/19 08:03:11;;;;;;;3.75;1.23;;;;;;;14.45;79.88;102100.13;5031758;28;20529;-75
2022/09/19 08:05:43;;;;;;;5.32;1.20;;;;;;;14.58;78.83;102098.94;5014571;28;20132;-75
2022/09/19 08:08:11;;;;;;;7.75;1.45;;;;;;;14.62;78.81;102101.50;5047991;28;20070;-75
2022/09/19 08:10:39;;;;;;;4.18;1.17;;;;;;;14.75;78.83;102104.88;5046873;28;20053;-75
2022/09/19 08:13:16;;;;;;;4.22;1.20;;;;;;;14.98;77.78;102106.38;5047824;28;20133;-77
2022/09/19 08:15:44;;;;;;;7.07;1.20;;;;;;;14.91;78.60;102102.00;5032105;28;20046;-77
2022/09/19 08:18:14;;;;;;;4.18;1.05;;;;;;;15.17;77.85;102117.97;5030923;28;20053;-76
2022/09/19 08:20:42;;;;;;;8.20;1.52;;;;;;;15.06;76.29;102104.94;5047403;28;20146;-77
2022/09/19 08:23:11;;;;;;;11.20;1.35;;;;;;;14.90;77.67;102113.16;5047600;28;20046;-75
2022/09/19 08:25:46;;;;;;;4.50;1.25;;;;;;;14.73;78.63;102114.53;5046868;28;20057;-77
2022/09/19 08:28:18;;;;;;;5.45;1.45;;;;;;;14.56;77.64;102114.69;5031250;28;20076;-77
2022/09/19 08:30:45;;;;;;;6.35;1.40;;;;;;;14.42;77.96;102119.75;5047235;28;20050;-77
2022/09/19 08:33:12;;;;;;;7.68;1.30;;;;;;;14.30;78.72;102116.66;5047435;28;20050;-77
2022/09/19 08:35:41;;;;;;;8.57;1.38;;;;;;;14.43;79.18;102118.56;5030548;28;20134;-77
2022/09/19 08:38:17;;;;;;;7.45;1.60;;;;;;;14.81;77.90;102126.50;5047650;28;20136;-77
2022/09/19 08:40:51;;;;;;;4.05;1.33;;;;;;;15.23;76.33;102130.38;5046608;28;20527;-75
2022/09/19 08:43:40;;;;;;;3.85;0.90;;;;;;;15.07;73.14;102133.25;5047564;28;20050;-78
2022/09/19 08:46:33;;;;;;;4.28;0.88;;;;;;;14.78;71.33;102130.06;5047597;28;20046;-77
2022/09/19 08:49:05;;;;;;;5.20;0.90;;;;;;;14.61;72.13;102140.19;5030870;28;20050;-77
2022/09/19 08:51:55;;;;;;;3.30;0.82;;;;;;;14.58;73.46;102143.72;5046919;28;20530;-78
2022/09/19 08:54:40;;;;;;;8.90;1.20;;;;;;;14.75;74.34;102153.13;5030342;28;20085;-78
2022/09/19 08:57:27;;;;;;;4.20;1.15;;;;;;;14.57;75.69;102147.59;5047390;28;20574;-78
2022/09/19 09:00:14;;;;;;;3.60;1.02;;;;;;;14.48;78.08;102150.19;5048220;28;20158;-77
2022/09/19 09:02:57;;;;;;;2.88;0.95;;;;;;;14.38;79.57;102151.25;5033756;28;20054;-77
2022/09/19 09:06:14;;;;;;;7.97;1.20;;;;;;;14.33;79.19;102149.88;5050204;28;20061;-77
2022/09/19 09:09:03;;;;;;;3.85;1.10;;;;;;;14.24;80.06;102149.78;5016808;28;20046;-77
2022/09/19 09:11:42;;;;;;;4.30;0.95;;;;;;;14.18;80.79;102146.88;5034823;28;20057;-77
2022/09/19 09:14:46;;;;;;;2.78;0.90;;;;;;;14.14;81.84;102151.59;5050299;28;20422;-77
2022/09/19 09:18:00;;;;;;;4.03;1.10;;;;;;;14.22;81.75;102149.44;5011517;28;20141;-77
2022/09/19 09:20:44;;;;;;;;;;;;;;;14.34;81.66;102148.69;4996833;28;20053;-77
2022/09/19 09:23:23;;;;;;;2.78;0.80;;;;;;;14.59;80.57;102150.59;5012609;28;19925;-77
2022/09/19 09:26:13;;;;;;;4.70;0.93;;;;;;;14.94;80.64;102148.66;5012757;28;20090;-77
2022/09/19 09:29:02;;;;;;;3.97;1.00;;;;;;;15.38;78.52;102151.31;5012182;28;20051;-78
2022/09/19 09:31:43;;;;;;;2.60;0.95;;;;;;;15.47;76.35;102148.69;5012202;28;20549;-78
2022/09/19 09:35:00;;;;;;;4.97;0.80;;;;;;;15.56;75.37;102152.22;5010000;28;20046;-77
2022/09/19 09:37:27;;;;;;;4.50;1.25;;;;;;;15.73;72.79;102149.28;4995873;28;20050;-77
2022/09/19 09:41:44;;;;;;;5.65;1.13;;;;;;;15.85;72.49;102154.59;5012251;28;20423;-77
2022/09/19 09:43:06;;;;;;;4.57;1.60;;;;;;;15.91;72.31;102158.19;5012280;28;20050;-77
2022/09/19 09:45:45;;;;;;;3.65;1.00;;;;;;;16.05;71.70;102154.19;5028309;28;20112;-77
2022/09/19 09:48:32;;;;;;;3.20;1.10;;;;;;;16.09;71.27;102156.75;5012188;28;20069;-77
2022/09/19 09:51:14;;;;;;;1.60;1.02;;;;;;;16.27;72.65;102154.84;5012509;28;20145;-76
2022/09/19 09:56:14;;;;;;;2.85;0.90;;;;;;;16.29;70.62;102155.16;5021978;28;20133;-76
2022/09/19 09:57:16;;;;;;;6.57;1.02;;;;;;;16.29;71.52;102143.66;5016254;28;20136;-76
2022/09/19 10:05:55;;;;;;;6.70;1.10;;;;;;;17.08;70.26;102146.56;5032853;28;20050;-76
2022/09/19 10:08:48;;;;;;;4.65;1.20;;;;;;;17.14;68.32;102139.38;5032599;28;20054;-76
2022/09/19 10:11:30;;;;;;;5.25;1.33;;;;;;;16.75;70.56;102149.88;5015034;28;20053;-75
2022/09/19 10:14:22;;;;;;;4.80;1.40;;;;;;;16.26;71.56;102158.00;5032999;28;20056;-76
2022/09/19 10:16:56;;;;;;;5.32;1.10;;;;;;;16.00;73.69;102166.25;5033333;28;20050;-76
2022/09/19 10:19:40;;;;;;;5.43;1.20;;;;;;;15.82;73.58;102162.75;5049170;28;20536;-76
2022/09/19 10:22:15;;;;;;;4.75;1.27;;;;;;;15.53;74.84;102165.72;5015883;28;20451;-76
2022/09/19 10:24:51;;;;;;;5.05;1.10;;;;;;;15.46;75.55;102171.34;5033518;28;20112;-76
2022/09/19 10:27:37;;;;;;;5.30;1.33;;;;;;;15.47;76.27;102172.84;5049343;28;20112;-76
2022/09/19 10:30:27;;;;;;;3.60;1.20;;;;;;;15.55;75.26;102169.47;5034619;28;20140;-76
2022/09/19 10:32:57;;;;;;;4.53;1.05;;;;;;;15.55;73.02;102174.09;5049048;28;20550;-77
2022/09/19 10:35:38;;;;;;;2.05;0.90;;;;;;;15.72;69.98;102175.41;5048308;28;20562;-76
2022/09/19 10:38:16;;;;;;;3.30;0.88;;;;;;;15.85;67.62;102186.06;5049059;28;20538;-77
2022/09/19 10:41:11;;;;;;;1.38;0.32;;;;;;;15.83;69.45;102193.78;5048666;28;20050;-77
2022/09/19 10:43:49;;;;;;;1.73;0.60;;;;;;;15.62;67.19;102189.94;5048866;28;20045;-76
2022/09/19 10:46:36;;;;;;;3.30;1.20;;;;;;;15.24;71.08;102190.13;5032509;28;20718;-76
2022/09/19 10:49:37;;;;;;;2.70;0.68;;;;;;;15.08;71.61;102187.66;5033865;28;20049;-76
2022/09/19 10:52:06;;;;;;;2.47;0.90;;;;;;;15.02;71.77;102187.44;5032986;28;20050;-76
2022/09/19 10:54:40;;;;;;;4.05;1.00;;;;;;;14.99;73.11;102185.63;5048548;28;20100;-75
2022/09/19 10:57:37;;;;;;;3.58;1.00;;;;;;;15.00;73.55;102187.88;5032404;28;20465;-76
2022/09/19 11:00:20;;;;;;;4.72;0.80;;;;;;;15.00;72.98;102179.09;5048751;28;20141;-75
2022/09/19 11:02:56;;;;;;;1.50;0.80;;;;;;;14.98;73.03;102176.09;5048518;28;20050;-75
2022/09/19 11:05:32;;;;;;;2.80;0.95;;;;;;;15.08;73.53;102180.34;5047983;28;20503;-76
2022/09/19 11:08:00;;;;;;;4.38;0.98;;;;;;;15.04;74.12;102171.66;5032206;28;20050;-76
2022/09/19 11:10:38;;;;;;;;;;;;;;;15.07;74.69;102175.41;5032263;28;20128;-76
2022/09/19 11:13:20;;;;;;;3.55;0.90;;;;;;;15.13;75.11;102169.06;5048805;28;19925;-76
2022/09/19 11:16:03;;;;;;;4.07;0.80;;;;;;;15.39;73.56;102180.41;5031627;28;20077;-76
2022/09/19 11:18:52;;;;;;;3.53;0.98;;;;;;;15.50;73.09;102175.41;5047820;28;20513;-76
2022/09/19 11:21:56;;;;;;;4.22;1.15;;;;;;;15.55;74.29;102172.16;5048459;28;20053;-76
2022/09/19 11:24:58;;;;;;;4.07;1.00;;;;;;;15.72;72.98;102174.66;5047797;28;20050;-76
2022/09/19 11:28:13;;;;;;;1.75;0.70;;;;;;;15.90;72.87;102164.00;5048140;28;20045;-76
2022/09/19 11:31:05;;;;;;;4.65;1.08;;;;;;;16.22;73.12;102162.75;4993821;28;20064;-76
2022/09/19 11:33:38;;;;;;;1.90;0.70;;;;;;;16.37;71.71;102157.56;5009946;28;20050;-76
2022/09/19 11:37:07;;;;;;;2.25;0.90;;;;;;;16.70;70.74;102163.16;4993793;28;20054;-76
2022/09/19 11:40:00;;;;;;;5.57;0.80;;;;;;;16.43;67.86;102177.25;5010224;28;20042;-75
2022/09/19 11:43:00;;;;;;;1.27;0.60;;;;;;;15.96;64.27;102184.47;4994165;28;20046;-76
2022/09/19 11:45:56;;;;;;;2.75;0.60;;;;;;;15.77;64.94;102180.19;4993960;28;20069;-74
2022/09/19 11:48:48;;;;;;;2.40;0.85;;;;;;;15.65;64.54;102176.41;5010052;28;20043;-76
2022/09/19 11:51:19;;;;;;;3.92;0.60;;;;;;;15.58;65.64;102181.31;4993743;28;20074;-76
2022/09/19 11:54:21;;;;;;;3.63;0.65;;;;;;;15.50;68.64;102180.78;4993917;28;20082;-76
2022/09/19 11:57:04;;;;;;;2.10;0.88;;;;;;;15.39;67.29;102180.41;4993704;28;20166;-76
2022/09/19 11:59:53;;;;;;;6.63;0.85;;;;;;;15.53;69.64;102179.91;4993748;28;20051;-76
2022/09/19 12:02:43;;;;;;;3.60;1.05;;;;;;;15.60;69.75;102184.28;5009803;28;20539;-77
2022/09/19 12:05:44;;;;;;;3.88;1.10;;;;;;;15.62;69.79;102184.59;5037992;28;20502;-77
2022/09/19 12:08:34;;;;;;;2.05;0.80;;;;;;;15.58;69.66;102182.06;5047852;28;20050;-77
2022/09/19 12:11:09;;;;;;;2.80;0.70;;;;;;;15.64;72.26;102174.91;5031206;28;20050;-77
2022/09/19 12:13:59;;;;;;;10.07;1.83;;;;;;;15.66;72.41;102175.22;5047586;28;20046;-77
2022/09/19 12:16:33;;;;;;;4.68;0.77;;;;;;;15.58;72.85;102176.69;5031901;28;20510;-76
2022/09/19 12:19:19;;;;;;;2.20;0.80;;;;;;;15.62;71.42;102174.59;5051031;28;20057;-76
2022/09/19 12:21:55;;;;;;;3.53;0.82;;;;;;;15.67;72.02;102175.97;5034220;28;20045;-77
2022/09/19 12:27:22;;;;;;;6.40;1.02;;;;;;;16.08;70.51;102160.59;5034484;28;20088;-77